Time;durP1;ratioP1;P1;durP2;ratioP2;P2;SDS_P1;SDS_P2;PMS_P1;PMS_P2;Temp;Humidity;BMP_temperature;BMP_pressure;BME280_temperature;BME280_humidity;BME280_pressure;Samples;Min_cycle;Max_cycle;Signal;HPM_P1;HPM_P2
2021/10/09 00:00:50;;;;;;;5.65;2.90;;;;;;;;;;5073946;28;20095;-76
2021/10/09 00:03:16;;;;;;;6.35;3.60;;;;;;;;;;5073689;28;20066;-76
2021/10/09 00:05:41;;;;;;;7.30;3.92;;;;;;;;;;5073622;28;20486;-75
2021/10/09 00:08:13;;;;;;;6.78;3.08;;;;;;;;;;5073558;28;20425;-74
2021/10/09 00:10:38;;;;;;;9.20;4.15;;;;;;;;;;5072657;28;20580;-75
2021/10/09 00:13:04;;;;;;;7.13;3.50;;;;;;;;;;5073571;28;20060;-75
2021/10/09 00:15:29;;;;;;;14.27;5.32;;;;;;;;;;5073359;28;20046;-76
2021/10/09 00:17:54;;;;;;;4.25;2.72;;;;;;;;;;5073608;28;20067;-75
2021/10/09 00:20:20;;;;;;;9.20;3.50;;;;;;;;;;5073595;28;20035;-76
2021/10/09 00:22:45;;;;;;;10.20;4.28;;;;;;;;;;5073345;28;20037;-76
2021/10/09 00:25:11;;;;;;;11.52;3.28;;;;;;;;;;5073599;28;20032;-75
2021/10/09 00:27:37;;;;;;;9.27;4.65;;;;;;;;;;5073319;28;20055;-75
2021/10/09 00:30:05;;;;;;;11.68;3.20;;;;;;;;;;5073377;28;20066;-76
2021/10/09 00:32:30;;;;;;;6.07;3.55;;;;;;;;;;5073256;28;20037;-76
2021/10/09 00:34:55;;;;;;;11.45;4.07;;;;;;;;;;5073103;28;20056;-75
2021/10/09 00:37:21;;;;;;;9.02;5.55;;;;;;;;;;5073338;28;20176;-76
2021/10/09 00:39:46;;;;;;;6.25;3.70;;;;;;;;;;5072797;28;20040;-75
2021/10/09 00:42:12;;;;;;;8.13;3.83;;;;;;;;;;5055042;28;20078;-76
2021/10/09 00:44:38;;;;;;;8.73;4.50;;;;;;;;;;5072907;28;20249;-76
2021/10/09 00:47:03;;;;;;;6.68;3.70;;;;;;;;;;5054920;28;20036;-75
2021/10/09 00:49:30;;;;;;;7.18;3.85;;;;;;;;;;5072991;28;20028;-75
2021/10/09 00:51:58;;;;;;;8.15;4.50;;;;;;;;;;5072754;28;20044;-75
2021/10/09 00:54:26;;;;;;;9.55;4.43;;;;;;;;;;5073242;28;20080;-77
2021/10/09 00:56:55;;;;;;;10.77;3.45;;;;;;;;;;5055510;28;20035;-76
2021/10/09 00:59:28;;;;;;;9.63;4.63;;;;;;;;;;5073077;28;20036;-77
2021/10/09 01:02:00;;;;;;;8.57;4.45;;;;;;;;;;5073214;28;20032;-76
2021/10/09 01:04:27;;;;;;;7.43;4.60;;;;;;;;;;5073695;28;20079;-75
2021/10/09 01:06:52;;;;;;;11.77;4.38;;;;;;;;;;5086148;28;20090;-76
2021/10/09 01:09:18;;;;;;;9.57;4.07;;;;;;;;;;5086962;28;20037;-76
2021/10/09 01:11:43;;;;;;;3.85;3.40;;;;;;;;;;5086854;28;20203;-76
2021/10/09 01:14:09;;;;;;;5.97;3.45;;;;;;;;;;5073049;28;20505;-76
2021/10/09 01:16:35;;;;;;;7.13;3.50;;;;;;;;;;5055451;28;20532;-76
2021/10/09 01:19:00;;;;;;;7.30;3.90;;;;;;;;;;5073428;28;20032;-75
2021/10/09 01:21:26;;;;;;;10.55;4.82;;;;;;;;;;5073023;28;20121;-75
2021/10/09 01:23:52;;;;;;;7.43;3.17;;;;;;;;;;5072265;28;20052;-75
2021/10/09 01:26:18;;;;;;;5.47;4.60;;;;;;;;;;5054259;28;20040;-75
2021/10/09 01:28:47;;;;;;;6.97;2.85;;;;;;;;;;5072274;28;20032;-76
2021/10/09 01:31:14;;;;;;;4.50;3.20;;;;;;;;;;5072260;28;20067;-75
2021/10/09 01:33:41;;;;;;;6.03;3.15;;;;;;;;;;5054182;28;20052;-77
2021/10/09 01:36:06;;;;;;;8.82;3.92;;;;;;;;;;5072152;28;20112;-75
2021/10/09 01:38:32;;;;;;;6.70;3.92;;;;;;;;;;5072269;28;20060;-76
2021/10/09 01:40:57;;;;;;;7.15;4.43;;;;;;;;;;5071948;28;20032;-77
2021/10/09 01:43:25;;;;;;;8.13;4.45;;;;;;;;;;5072280;28;20032;-76
2021/10/09 01:45:51;;;;;;;15.00;4.13;;;;;;;;;;5072184;28;20029;-75
2021/10/09 01:48:17;;;;;;;4.72;3.08;;;;;;;;;;5071907;28;20037;-77
2021/10/09 01:50:44;;;;;;;5.40;3.08;;;;;;;;;;5071844;28;20103;-77
2021/10/09 01:53:10;;;;;;;6.18;3.58;;;;;;;;;;5071802;28;20107;-76
2021/10/09 01:55:37;;;;;;;9.18;4.10;;;;;;;;;;5071402;28;20139;-76
2021/10/09 01:58:03;;;;;;;6.28;3.28;;;;;;;;;;5072041;28;20085;-76
2021/10/09 02:00:28;;;;;;;13.02;4.45;;;;;;;;;;5071623;28;20043;-76
2021/10/09 02:02:59;;;;;;;6.38;3.40;;;;;;;;;;5071737;28;20119;-75
2021/10/09 02:05:24;;;;;;;8.85;2.72;;;;;;;;;;5053670;28;20032;-80
2021/10/09 02:07:50;;;;;;;6.05;3.58;;;;;;;;;;5071669;28;20398;-76
2021/10/09 02:10:16;;;;;;;5.88;3.50;;;;;;;;;;5071663;28;20032;-76
2021/10/09 02:12:41;;;;;;;8.45;3.85;;;;;;;;;;5071496;28;20035;-76
2021/10/09 02:15:17;;;;;;;6.95;4.28;;;;;;;;;;5071362;28;20079;-75
2021/10/09 02:25:46;;;;;;;7.90;3.90;;;;;;;;;;5071265;28;20073;-76
2021/10/09 02:28:17;;;;;;;13.55;4.13;;;;;;;;;;5071298;28;20071;-76
2021/10/09 02:30:43;;;;;;;9.38;4.68;;;;;;;;;;5053515;28;20070;-76
2021/10/09 02:33:09;;;;;;;12.00;5.60;;;;;;;;;;5071148;28;20486;-75
2021/10/09 02:35:35;;;;;;;6.60;4.00;;;;;;;;;;5070900;28;20123;-76
2021/10/09 02:38:01;;;;;;;10.75;4.78;;;;;;;;;;5053947;28;20040;-76
2021/10/09 02:40:27;;;;;;;10.13;4.72;;;;;;;;;;5053597;28;20041;-76
2021/10/09 02:42:52;;;;;;;11.02;4.53;;;;;;;;;;5071591;28;20029;-76
2021/10/09 02:45:17;;;;;;;13.68;3.50;;;;;;;;;;5071357;28;20024;-79
2021/10/09 02:47:43;;;;;;;8.27;5.00;;;;;;;;;;5071493;28;20036;-78
2021/10/09 02:50:13;;;;;;;12.38;4.85;;;;;;;;;;5071283;28;20531;-77
2021/10/09 02:52:39;;;;;;;10.93;4.40;;;;;;;;;;5071359;28;20025;-78
2021/10/09 02:55:05;;;;;;;8.40;4.03;;;;;;;;;;5053134;28;20110;-75
2021/10/09 02:57:31;;;;;;;10.23;4.35;;;;;;;;;;5071307;28;20028;-76
2021/10/09 02:59:56;;;;;;;10.23;5.78;;;;;;;;;;5071291;28;20067;-75
2021/10/09 03:02:22;;;;;;;9.50;5.43;;;;;;;;;;5070997;28;20456;-75
2021/10/09 03:04:47;;;;;;;6.82;3.53;;;;;;;;;;5070986;28;20036;-76
2021/10/09 03:07:12;;;;;;;8.60;4.70;;;;;;;;;;5070763;28;20082;-75
2021/10/09 03:09:38;;;;;;;8.98;4.40;;;;;;;;;;5070912;28;20056;-76
2021/10/09 03:12:03;;;;;;;12.85;4.75;;;;;;;;;;5070888;28;20115;-76
2021/10/09 03:14:29;;;;;;;14.65;5.05;;;;;;;;;;5070637;28;20045;-74
2021/10/09 03:16:55;;;;;;;13.38;5.72;;;;;;;;;;5070978;28;20033;-77
2021/10/09 03:19:20;;;;;;;10.63;4.90;;;;;;;;;;5052890;28;20090;-75
2021/10/09 03:21:46;;;;;;;10.60;4.20;;;;;;;;;;5070588;28;20115;-75
2021/10/09 03:24:12;;;;;;;5.18;4.10;;;;;;;;;;5052496;28;20135;-75
2021/10/09 03:26:37;;;;;;;10.90;5.57;;;;;;;;;;5070745;28;20471;-75
2021/10/09 03:29:02;;;;;;;11.45;5.55;;;;;;;;;;5070662;28;20055;-76
2021/10/09 03:31:28;;;;;;;11.05;5.03;;;;;;;;;;5070448;28;20493;-76
2021/10/09 03:33:53;;;;;;;9.73;5.40;;;;;;;;;;5070618;28;20081;-75
2021/10/09 03:36:19;;;;;;;11.15;5.97;;;;;;;;;;5070771;28;20035;-76
2021/10/09 03:38:44;;;;;;;7.47;4.00;;;;;;;;;;5070486;28;20036;-75
2021/10/09 03:41:12;;;;;;;10.95;5.55;;;;;;;;;;5070453;28;20032;-76
2021/10/09 03:43:39;;;;;;;8.93;4.47;;;;;;;;;;5070460;28;20071;-76
2021/10/09 03:46:12;;;;;;;12.68;5.38;;;;;;;;;;5071144;28;20064;-74
2021/10/09 03:48:47;;;;;;;9.93;5.70;;;;;;;;;;5073992;28;20513;-76
2021/10/09 03:53:56;;;;;;;8.02;6.78;;;;;;;;;;5073939;28;20687;-77
2021/10/09 03:56:22;;;;;;;10.95;5.55;;;;;;;;;;5073943;28;20041;-77
2021/10/09 03:58:47;;;;;;;7.93;5.25;;;;;;;;;;5073771;28;20060;-76
2021/10/09 04:01:12;;;;;;;8.57;5.18;;;;;;;;;;5073726;28;20036;-76
2021/10/09 04:03:38;;;;;;;9.30;5.85;;;;;;;;;;5073489;28;20040;-76
2021/10/09 04:06:03;;;;;;;14.13;7.22;;;;;;;;;;5055867;28;20035;-78
2021/10/09 04:08:29;;;;;;;10.75;6.40;;;;;;;;;;5074089;28;20037;-76
2021/10/09 04:10:54;;;;;;;10.07;5.30;;;;;;;;;;5073807;28;20166;-78
2021/10/09 04:13:19;;;;;;;12.70;6.55;;;;;;;;;;5073719;28;20066;-77
2021/10/09 04:15:45;;;;;;;6.55;3.83;;;;;;;;;;5073644;28;20060;-79
2021/10/09 04:18:10;;;;;;;15.77;7.80;;;;;;;;;;5073438;28;20037;-77
2021/10/09 04:20:37;;;;;;;13.20;5.63;;;;;;;;;;5073175;28;20064;-77
2021/10/09 04:23:03;;;;;;;13.68;6.88;;;;;;;;;;5073398;28;20041;-78
2021/10/09 04:25:29;;;;;;;12.32;5.97;;;;;;;;;;5073497;28;20056;-77
2021/10/09 04:27:54;;;;;;;16.85;6.97;;;;;;;;;;5073190;28;20497;-77
2021/10/09 04:30:20;;;;;;;10.25;6.50;;;;;;;;;;5073125;28;20370;-76
2021/10/09 04:32:45;;;;;;;13.48;6.88;;;;;;;;;;5073263;28;20038;-78
2021/10/09 04:35:10;;;;;;;6.68;4.70;;;;;;;;;;5073218;28;20036;-78
2021/10/09 04:37:36;;;;;;;12.23;4.90;;;;;;;;;;5073002;28;20520;-79
2021/10/09 04:40:03;;;;;;;6.93;4.68;;;;;;;;;;5073097;28;20036;-79
2021/10/09 04:42:28;;;;;;;10.02;5.25;;;;;;;;;;5073018;28;20178;-77
2021/10/09 04:44:54;;;;;;;12.23;6.68;;;;;;;;;;5072814;28;20122;-77
2021/10/09 04:47:19;;;;;;;9.75;4.78;;;;;;;;;;5055094;28;20046;-77
2021/10/09 04:49:45;;;;;;;14.63;6.30;;;;;;;;;;5072684;28;20028;-76
2021/10/09 04:52:10;;;;;;;12.65;6.57;;;;;;;;;;5072734;28;20044;-77
2021/10/09 04:54:37;;;;;;;18.52;5.03;;;;;;;;;;5072351;28;20044;-77
2021/10/09 04:57:02;;;;;;;7.63;5.00;;;;;;;;;;5072376;28;20114;-79
2021/10/09 04:59:28;;;;;;;12.70;8.05;;;;;;;;;;5072741;28;20111;-79
2021/10/09 05:01:53;;;;;;;12.15;6.70;;;;;;;;;;5072814;28;20072;-78
2021/10/09 05:04:18;;;;;;;10.25;5.85;;;;;;;;;;5054488;28;20058;-78
2021/10/09 05:06:44;;;;;;;9.73;6.95;;;;;;;;;;5073142;28;20032;-76
2021/10/09 05:09:09;;;;;;;17.52;7.10;;;;;;;;;;5072999;28;20074;-77
2021/10/09 05:11:35;;;;;;;15.63;6.70;;;;;;;;;;5072891;28;20512;-78
2021/10/09 05:14:00;;;;;;;16.08;7.28;;;;;;;;;;5072916;28;20040;-77
2021/10/09 05:16:26;;;;;;;14.10;7.97;;;;;;;;;;5055167;28;20028;-75
2021/10/09 05:18:51;;;;;;;12.32;6.07;;;;;;;;;;5072933;28;20063;-78
2021/10/09 05:21:16;;;;;;;12.57;7.38;;;;;;;;;;5072665;28;20123;-76
2021/10/09 05:23:42;;;;;;;10.25;6.57;;;;;;;;;;5072592;28;20029;-76
2021/10/09 05:26:08;;;;;;;14.98;7.00;;;;;;;;;;5072592;28;20035;-76
2021/10/09 05:28:45;;;;;;;14.40;7.85;;;;;;;;;;5072660;28;20032;-75
2021/10/09 05:31:20;;;;;;;12.40;6.68;;;;;;;;;;5072417;28;20036;-76
2021/10/09 05:33:46;;;;;;;14.73;8.05;;;;;;;;;;5072563;28;20063;-76
2021/10/09 05:36:11;;;;;;;11.23;7.30;;;;;;;;;;5072375;28;20059;-77
2021/10/09 05:38:37;;;;;;;9.60;6.15;;;;;;;;;;5072372;28;20044;-76
2021/10/09 05:41:03;;;;;;;15.50;7.15;;;;;;;;;;5072339;28;20078;-77
2021/10/09 05:43:30;;;;;;;16.17;9.80;;;;;;;;;;5054408;28;20033;-76
2021/10/09 05:45:56;;;;;;;23.60;9.18;;;;;;;;;;5054353;28;20398;-76
2021/10/09 05:48:22;;;;;;;11.73;6.10;;;;;;;;;;5072496;28;20036;-76
2021/10/09 05:56:18;;;;;;;16.80;6.57;;;;;;;;;;5032094;28;20176;-76
2021/10/09 06:42:33;;;;;;;12.23;4.88;;;;;;;;;;5031983;28;20505;-78
2021/10/09 06:47:49;;;;;;;14.95;9.50;;;;;;;;;;5032059;28;20945;-78
2021/10/09 06:50:55;;;;;;;14.85;6.57;;;;;;;;;;5031754;28;20033;-77
2021/10/09 07:01:25;;;;;;;15.98;8.10;;;;;;;;;;5031468;28;20037;-75
2021/10/09 07:03:50;;;;;;;11.70;7.32;;;;;;;;;;5031414;28;20041;-76
2021/10/09 07:06:17;;;;;;;16.65;8.65;;;;;;;;;;5031436;28;20121;-76
2021/10/09 07:08:43;;;;;;;15.18;8.68;;;;;;;;;;5030029;28;20483;-78
2021/10/09 07:11:08;;;;;;;11.25;6.95;;;;;;;;;;5031293;28;20052;-75
2021/10/09 07:13:34;;;;;;;12.50;8.57;;;;;;;;;;5029537;28;20033;-77
2021/10/09 07:16:00;;;;;;;14.43;8.20;;;;;;;;;;5031406;28;20530;-77
2021/10/09 07:18:25;;;;;;;14.73;8.50;;;;;;;;;;5031581;28;20108;-77
2021/10/09 07:20:50;;;;;;;19.15;9.32;;;;;;;;;;5033327;28;20041;-78
2021/10/09 07:23:16;;;;;;;16.60;9.77;;;;;;;;;;5035129;28;20544;-76
2021/10/09 07:25:42;;;;;;;10.68;7.15;;;;;;;;;;5034875;28;20172;-74
2021/10/09 07:28:07;;;;;;;13.77;7.68;;;;;;;;;;5034611;28;20061;-76
2021/10/09 07:30:33;;;;;;;13.85;6.85;;;;;;;;;;5034908;28;20030;-76
2021/10/09 07:32:58;;;;;;;11.32;7.55;;;;;;;;;;5034946;28;20486;-76
2021/10/09 07:35:25;;;;;;;20.58;10.18;;;;;;;;;;5034665;28;20387;-76
2021/10/09 07:37:51;;;;;;;10.35;7.35;;;;;;;;;;5034845;28;20183;-75
2021/10/09 07:40:18;;;;;;;11.77;7.47;;;;;;;;;;5038971;28;20033;-76
2021/10/09 07:42:43;;;;;;;15.35;7.78;;;;;;;;;;5053379;28;20391;-77
2021/10/09 07:45:09;;;;;;;11.25;5.60;;;;;;;;;;5053583;28;20047;-77
2021/10/09 07:47:34;;;;;;;16.63;11.02;;;;;;;;;;5033451;28;20405;-76
2021/10/09 07:50:00;;;;;;;11.90;6.35;;;;;;;;;;5032971;28;20417;-76
2021/10/09 07:52:25;;;;;;;11.25;6.75;;;;;;;;;;5034321;28;20071;-77
2021/10/09 07:54:50;;;;;;;17.73;9.02;;;;;;;;;;5057353;28;20064;-77
2021/10/09 07:57:16;;;;;;;11.23;6.43;;;;;;;;;;5085229;28;20111;-76
2021/10/09 07:59:41;;;;;;;12.32;7.15;;;;;;;;;;5094076;28;20433;-76
2021/10/09 08:02:07;;;;;;;13.55;7.00;;;;;;;;;;5074041;28;20039;-76
2021/10/09 08:04:33;;;;;;;12.85;7.65;;;;;;;;;;5094205;28;20043;-76
2021/10/09 08:06:58;;;;;;;15.63;8.90;;;;;;;;;;5094196;28;20423;-77
2021/10/09 08:09:26;;;;;;;14.18;7.68;;;;;;;;;;5094545;28;20036;-77
2021/10/09 08:11:52;;;;;;;10.32;7.38;;;;;;;;;;5076356;28;20054;-77
2021/10/09 08:14:18;;;;;;;17.33;8.63;;;;;;;;;;5094076;28;20036;-77
2021/10/09 08:16:44;;;;;;;12.27;6.95;;;;;;;;;;5094074;28;20264;-77
2021/10/09 08:19:10;;;;;;;14.38;9.88;;;;;;;;;;5094086;28;20028;-77
2021/10/09 08:21:40;;;;;;;13.45;6.82;;;;;;;;;;5075828;28;20024;-76
2021/10/09 08:39:40;;;;;;;9.80;7.20;;;;;;;;;;5093576;28;20078;-71
2021/10/09 08:42:05;;;;;;;13.45;7.20;;;;;;;;;;5093032;28;20036;-69
2021/10/09 08:44:31;;;;;;;7.53;5.03;;;;;;;;;;5093276;28;20043;-69
2021/10/09 08:46:56;;;;;;;15.35;7.93;;;;;;;;;;5093306;28;20112;-70
2021/10/09 08:49:21;;;;;;;11.77;7.63;;;;;;;;;;5093434;28;20177;-69
2021/10/09 08:51:47;;;;;;;12.55;7.65;;;;;;;;;;5093138;28;20420;-69
2021/10/09 08:54:13;;;;;;;13.55;6.85;;;;;;;;;;5092958;28;20048;-69
2021/10/09 08:56:41;;;;;;;9.23;6.07;;;;;;;;;;5093329;28;20128;-70
2021/10/09 08:59:25;;;;;;;14.35;7.13;;;;;;;;;;5093364;28;20512;-71
2021/10/09 09:02:01;;;;;;;15.45;5.78;;;;;;;;;;5093304;28;20519;-70
2021/10/09 09:05:27;;;;;;;;;;;;;;;;;;5093662;28;20036;-70
2021/10/09 09:40:06;;;;;;;8.98;5.40;;;;;;;;;;5092790;28;20027;-73
2021/10/09 09:42:31;;;;;;;7.32;4.90;;;;;;;;;;5093802;28;20039;-74
2021/10/09 09:44:59;;;;;;;6.45;4.00;;;;;;;;;;5092427;28;20039;-71
2021/10/09 09:47:36;;;;;;;8.55;5.72;;;;;;;;;;5092589;28;20118;-71
2021/10/09 09:50:06;;;;;;;11.65;7.03;;;;;;;;;;5092284;28;20046;-71
2021/10/09 09:52:40;;;;;;;10.70;5.45;;;;;;;;;;5092102;28;20036;-70
2021/10/09 09:55:08;;;;;;;18.50;6.78;;;;;;;;;;5091781;28;20083;-72
2021/10/09 09:57:36;;;;;;;8.00;5.22;;;;;;;;;;5073873;28;20024;-71
2021/10/09 10:00:05;;;;;;;13.05;5.43;;;;;;;;;;5092556;28;20163;-70
2021/10/09 10:02:30;;;;;;;8.18;5.35;;;;;;;;;;5092018;28;20040;-70
2021/10/09 10:05:02;;;;;;;10.93;5.55;;;;;;;;;;5092185;28;20051;-71
2021/10/09 10:07:29;;;;;;;16.25;7.18;;;;;;;;;;5091923;28;20032;-70
2021/10/09 10:09:54;;;;;;;8.13;4.95;;;;;;;;;;5092193;28;20047;-70
2021/10/09 10:12:23;;;;;;;9.25;5.68;;;;;;;;;;5092094;28;20040;-70
2021/10/09 10:14:50;;;;;;;7.32;4.85;;;;;;;;;;5091737;28;20048;-69
2021/10/09 10:17:38;;;;;;;9.25;5.65;;;;;;;;;;5091647;28;20493;-70
2021/10/09 10:20:06;;;;;;;14.32;5.18;;;;;;;;;;5091921;28;20052;-70
2021/10/09 10:22:34;;;;;;;5.88;4.68;;;;;;;;;;5091264;28;20496;-76
2021/10/09 10:25:00;;;;;;;8.18;4.75;;;;;;;;;;5091340;28;20122;-75
2021/10/09 10:27:40;;;;;;;8.98;5.85;;;;;;;;;;5075418;28;20115;-74
2021/10/09 10:30:15;;;;;;;7.47;5.68;;;;;;;;;;5091156;28;20043;-75
2021/10/09 10:33:01;;;;;;;11.40;5.97;;;;;;;;;;5091054;28;20040;-75
2021/10/09 10:35:29;;;;;;;9.88;5.93;;;;;;;;;;5052700;28;20032;-75
2021/10/09 10:38:05;;;;;;;12.80;5.75;;;;;;;;;;5071394;28;20044;-75
2021/10/09 10:40:54;;;;;;;9.85;6.57;;;;;;;;;;5049912;28;20126;-75
2021/10/09 10:46:19;;;;;;;12.57;5.53;;;;;;;;;;5087738;28;20032;-75
2021/10/09 10:49:10;;;;;;;8.93;5.50;;;;;;;;;;5054823;28;20497;-74
2021/10/09 10:51:38;;;;;;;8.20;5.70;;;;;;;;;;5070291;28;20039;-75
2021/10/09 10:56:56;;;;;;;10.25;5.30;;;;;;;;;;5074229;28;20032;-74
2021/10/09 10:59:45;;;;;;;7.20;4.18;;;;;;;;;;5095129;28;20032;-75
2021/10/09 11:02:16;;;;;;;9.65;7.20;;;;;;;;;;5074698;28;20135;-75
2021/10/09 11:04:46;;;;;;;8.85;6.47;;;;;;;;;;5074080;28;20146;-74
2021/10/09 11:07:12;;;;;;;10.93;6.35;;;;;;;;;;5075448;28;20032;-75
2021/10/09 11:09:39;;;;;;;7.82;4.25;;;;;;;;;;5076038;28;20119;-73
2021/10/09 11:12:29;;;;;;;14.68;8.40;;;;;;;;;;5073952;28;20593;-74
2021/10/09 11:15:31;;;;;;;14.07;7.72;;;;;;;;;;5056169;28;20064;-77
2021/10/09 11:18:04;;;;;;;14.23;6.38;;;;;;;;;;4992884;28;20125;-75
2021/10/09 11:20:34;;;;;;;7.65;4.22;;;;;;;;;;5045615;28;20060;-76
2021/10/09 11:23:05;;;;;;;8.77;6.00;;;;;;;;;;5094657;28;20512;-75
2021/10/09 11:25:35;;;;;;;12.15;7.00;;;;;;;;;;5094257;28;20036;-76
2021/10/09 11:28:04;;;;;;;15.50;7.85;;;;;;;;;;5076758;28;20067;-76
2021/10/09 11:30:31;;;;;;;11.23;6.80;;;;;;;;;;5094413;28;20040;-77
2021/10/09 11:32:57;;;;;;;16.25;7.03;;;;;;;;;;5094352;28;20035;-76
2021/10/09 11:35:37;;;;;;;10.98;6.60;;;;;;;;;;5094241;28;20089;-75
2021/10/09 11:38:19;;;;;;;8.27;5.60;;;;;;;;;;5077610;28;20043;-75
2021/10/09 11:40:52;;;;;;;9.55;6.05;;;;;;;;;;5094266;28;20036;-74
2021/10/09 11:43:26;;;;;;;16.42;8.48;;;;;;;;;;5076243;28;20513;-74
2021/10/09 11:45:59;;;;;;;12.10;7.85;;;;;;;;;;5076007;28;20032;-76
2021/10/09 11:54:03;;;;;;;9.13;6.70;;;;;;;;;;5093676;28;20067;-76
2021/10/09 11:56:29;;;;;;;12.90;7.82;;;;;;;;;;5093167;28;20039;-74
2021/10/09 11:58:59;;;;;;;14.20;7.35;;;;;;;;;;5093703;28;20040;-76
2021/10/09 12:01:27;;;;;;;15.00;9.70;;;;;;;;;;5075997;28;20028;-75
2021/10/09 12:03:52;;;;;;;15.45;9.60;;;;;;;;;;5093513;28;20043;-78
2021/10/09 12:06:17;;;;;;;12.85;7.65;;;;;;;;;;5093629;28;20032;-76
2021/10/09 12:08:54;;;;;;;15.05;9.43;;;;;;;;;;5093924;28;20404;-77
2021/10/09 12:11:21;;;;;;;9.35;6.63;;;;;;;;;;5092938;28;20039;-76
2021/10/09 12:14:07;;;;;;;12.02;7.25;;;;;;;;;;5075150;28;20088;-75
2021/10/09 12:16:39;;;;;;;11.80;8.70;;;;;;;;;;5093958;28;20047;-75
2021/10/09 12:19:24;;;;;;;17.73;9.45;;;;;;;;;;5093422;28;20043;-75
2021/10/09 12:21:53;;;;;;;19.20;9.27;;;;;;;;;;5093557;28;20396;-76
2021/10/09 12:24:27;;;;;;;13.20;7.40;;;;;;;;;;5092981;28;20063;-74
2021/10/09 12:27:20;;;;;;;14.02;6.75;;;;;;;;;;5093393;28;20050;-75
2021/10/09 12:30:08;;;;;;;11.63;6.90;;;;;;;;;;5090150;28;20436;-76
2021/10/09 12:32:45;;;;;;;10.10;7.10;;;;;;;;;;5092658;28;20036;-75
2021/10/09 12:35:20;;;;;;;16.15;8.52;;;;;;;;;;5093432;28;20063;-77
2021/10/09 12:38:08;;;;;;;11.63;7.82;;;;;;;;;;5075118;28;20451;-74
2021/10/09 12:40:52;;;;;;;13.00;8.35;;;;;;;;;;5074665;28;20079;-75
2021/10/09 12:43:23;;;;;;;13.32;8.40;;;;;;;;;;5075260;28;20077;-74
2021/10/09 12:45:50;;;;;;;10.38;5.78;;;;;;;;;;5075097;28;20035;-75
2021/10/09 12:48:17;;;;;;;15.65;7.80;;;;;;;;;;5092710;28;20032;-77
2021/10/09 12:50:43;;;;;;;14.85;8.00;;;;;;;;;;5074857;28;20032;-75
2021/10/09 12:53:08;;;;;;;15.90;8.02;;;;;;;;;;5092759;28;20028;-75
2021/10/09 12:55:36;;;;;;;15.02;8.75;;;;;;;;;;5091802;28;20131;-76
2021/10/09 12:58:09;;;;;;;7.63;4.90;;;;;;;;;;5092575;28;20043;-75
2021/10/09 13:00:37;;;;;;;12.02;9.93;;;;;;;;;;5092587;28;20040;-75
2021/10/09 13:03:02;;;;;;;11.05;7.35;;;;;;;;;;5092190;28;20111;-75
2021/10/09 13:05:31;;;;;;;12.90;8.82;;;;;;;;;;5092349;28;20139;-74
2021/10/09 13:07:58;;;;;;;13.88;8.13;;;;;;;;;;5092597;28;20400;-75
2021/10/09 13:10:24;;;;;;;15.57;10.30;;;;;;;;;;5092120;28;20436;-75
2021/10/09 13:12:51;;;;;;;10.43;6.22;;;;;;;;;;5092479;28;20067;-77
2021/10/09 13:15:18;;;;;;;15.23;7.43;;;;;;;;;;5092740;28;20028;-75
2021/10/09 13:17:47;;;;;;;12.73;7.18;;;;;;;;;;5073524;28;20028;-74
2021/10/09 13:20:13;;;;;;;10.82;6.65;;;;;;;;;;5092349;28;20129;-74
2021/10/09 13:22:39;;;;;;;10.38;7.18;;;;;;;;;;5092754;28;20044;-76
2021/10/09 13:25:05;;;;;;;15.98;7.38;;;;;;;;;;5092090;28;20044;-75
2021/10/09 13:27:31;;;;;;;20.05;11.65;;;;;;;;;;5092338;28;20494;-76
2021/10/09 13:29:58;;;;;;;10.80;7.50;;;;;;;;;;5092764;28;20530;-75
2021/10/09 13:32:24;;;;;;;13.75;8.32;;;;;;;;;;5073172;28;20071;-75
2021/10/09 13:34:49;;;;;;;10.80;7.00;;;;;;;;;;5074140;28;20063;-75
2021/10/09 13:37:22;;;;;;;12.50;8.45;;;;;;;;;;5092485;28;20028;-76
2021/10/09 13:39:49;;;;;;;11.23;7.57;;;;;;;;;;5091808;28;20036;-75
2021/10/09 13:42:15;;;;;;;11.50;8.45;;;;;;;;;;5092162;28;20028;-75
2021/10/09 13:44:40;;;;;;;15.68;10.27;;;;;;;;;;5091863;28;20080;-76
2021/10/09 13:47:06;;;;;;;15.40;8.02;;;;;;;;;;5091375;28;20039;-76
2021/10/09 13:49:32;;;;;;;15.48;8.93;;;;;;;;;;5091945;28;20039;-74
2021/10/09 13:51:58;;;;;;;15.52;9.35;;;;;;;;;;5091921;28;20662;-74
2021/10/09 13:54:23;;;;;;;20.27;9.80;;;;;;;;;;5091065;28;20066;-77
2021/10/09 13:56:48;;;;;;;15.48;8.05;;;;;;;;;;5092126;28;20040;-75
2021/10/09 13:59:14;;;;;;;16.98;10.68;;;;;;;;;;5091834;28;20097;-76
2021/10/09 14:01:41;;;;;;;14.55;9.63;;;;;;;;;;5091241;28;20439;-74
2021/10/09 14:04:07;;;;;;;16.77;9.43;;;;;;;;;;5091521;28;20089;-73
2021/10/09 14:06:32;;;;;;;10.68;6.82;;;;;;;;;;5091917;28;20423;-76
2021/10/09 14:08:58;;;;;;;12.75;8.32;;;;;;;;;;5091184;28;20059;-75
2021/10/09 14:11:23;;;;;;;16.73;12.02;;;;;;;;;;5091935;28;20034;-73
2021/10/09 14:13:49;;;;;;;12.18;6.13;;;;;;;;;;5091802;28;20040;-77
2021/10/09 14:16:15;;;;;;;15.38;9.90;;;;;;;;;;5091218;28;20032;-77
2021/10/09 14:18:40;;;;;;;15.80;10.40;;;;;;;;;;5091645;28;20042;-75
2021/10/09 14:21:05;;;;;;;14.93;8.70;;;;;;;;;;5091931;28;20089;-77
2021/10/09 14:23:31;;;;;;;13.23;6.10;;;;;;;;;;5072904;28;20078;-76
2021/10/09 14:25:56;;;;;;;12.70;7.70;;;;;;;;;;5091398;28;20028;-74
2021/10/09 14:28:22;;;;;;;11.95;9.35;;;;;;;;;;5091490;28;20447;-75
2021/10/09 14:30:50;;;;;;;15.80;9.93;;;;;;;;;;5090226;28;20118;-76
2021/10/09 14:33:16;;;;;;;11.18;7.43;;;;;;;;;;5091749;28;20072;-74
2021/10/09 14:35:42;;;;;;;14.57;9.40;;;;;;;;;;5072994;28;20031;-75
2021/10/09 14:38:07;;;;;;;15.35;7.28;;;;;;;;;;5090604;28;20059;-74
2021/10/09 14:40:33;;;;;;;11.48;6.63;;;;;;;;;;5091488;28;20081;-76
2021/10/09 14:42:59;;;;;;;15.25;6.65;;;;;;;;;;5091321;28;20481;-76
2021/10/09 14:45:26;;;;;;;9.70;6.53;;;;;;;;;;5091449;28;20050;-74
2021/10/09 15:17:45;;;;;;;10.52;7.75;;;;;;;;;;5091873;28;20123;-74
2021/10/09 15:20:11;;;;;;;7.40;5.47;;;;;;;;;;5073364;28;20408;-74
2021/10/09 15:22:36;;;;;;;13.93;9.35;;;;;;;;;;5091227;28;20055;-75
2021/10/09 15:25:03;;;;;;;10.52;7.57;;;;;;;;;;5091005;28;20036;-76
2021/10/09 15:27:29;;;;;;;13.95;8.48;;;;;;;;;;5091102;28;20036;-74
2021/10/09 15:29:56;;;;;;;13.95;9.23;;;;;;;;;;5091090;28;20032;-75
2021/10/09 15:32:21;;;;;;;9.93;7.07;;;;;;;;;;5091206;28;20040;-73
2021/10/09 15:34:47;;;;;;;13.07;9.25;;;;;;;;;;5091059;28;20065;-74
2021/10/09 15:37:13;;;;;;;15.25;9.45;;;;;;;;;;5091146;28;20036;-73
2021/10/09 15:39:38;;;;;;;10.77;7.32;;;;;;;;;;5072617;28;20032;-74
2021/10/09 15:42:05;;;;;;;16.67;10.43;;;;;;;;;;5092799;28;20031;-75
2021/10/09 15:44:30;;;;;;;13.38;8.77;;;;;;;;;;5094466;28;20044;-74
2021/10/09 15:46:56;;;;;;;12.10;8.68;;;;;;;;;;5094594;28;20031;-75
2021/10/09 15:49:22;;;;;;;11.30;7.40;;;;;;;;;;5094700;28;20035;-75
2021/10/09 15:51:48;;;;;;;11.68;7.20;;;;;;;;;;5094809;28;20039;-76
2021/10/09 15:54:13;;;;;;;15.18;9.63;;;;;;;;;;5094259;28;20056;-74
2021/10/09 15:56:39;;;;;;;9.93;6.72;;;;;;;;;;5094464;28;20032;-75
2021/10/09 15:59:04;;;;;;;8.70;6.88;;;;;;;;;;5094583;28;20115;-75
2021/10/09 16:01:30;;;;;;;10.00;7.57;;;;;;;;;;5094323;28;20031;-75
2021/10/09 16:03:55;;;;;;;11.32;7.72;;;;;;;;;;5094256;28;20086;-76
2021/10/09 16:06:22;;;;;;;13.88;10.10;;;;;;;;;;5094881;28;20028;-77
2021/10/09 16:08:47;;;;;;;12.45;6.93;;;;;;;;;;5076035;28;20059;-75
2021/10/09 16:11:13;;;;;;;14.82;11.18;;;;;;;;;;5094371;28;20489;-74
2021/10/09 16:13:38;;;;;;;16.70;10.68;;;;;;;;;;5094316;28;20443;-78
2021/10/09 16:16:04;;;;;;;14.90;10.65;;;;;;;;;;5094501;28;20418;-74
2021/10/09 16:18:30;;;;;;;18.35;10.63;;;;;;;;;;5094832;28;20032;-77
2021/10/09 16:20:55;;;;;;;14.88;10.32;;;;;;;;;;5094208;28;20028;-76
2021/10/09 16:23:20;;;;;;;15.43;8.90;;;;;;;;;;5094436;28;20404;-76
2021/10/09 16:25:46;;;;;;;8.15;5.75;;;;;;;;;;5076210;28;20084;-77
2021/10/09 16:28:11;;;;;;;9.65;7.60;;;;;;;;;;5094085;28;20030;-75
2021/10/09 16:30:37;;;;;;;11.68;7.82;;;;;;;;;;5093772;28;20111;-74
2021/10/09 16:33:02;;;;;;;17.42;8.70;;;;;;;;;;5093858;28;20400;-74
2021/10/09 16:35:27;;;;;;;11.60;6.97;;;;;;;;;;5093623;28;20541;-74
2021/10/09 16:37:53;;;;;;;11.50;7.95;;;;;;;;;;5093749;28;20032;-78
2021/10/09 16:40:18;;;;;;;13.02;6.45;;;;;;;;;;5094119;28;20553;-76
2021/10/09 16:42:44;;;;;;;13.38;8.15;;;;;;;;;;5094020;28;20036;-77
2021/10/09 16:45:09;;;;;;;12.52;7.35;;;;;;;;;;5094002;28;20042;-75
2021/10/09 16:47:35;;;;;;;13.63;9.82;;;;;;;;;;5093913;28;20054;-75
2021/10/09 16:50:00;;;;;;;17.83;8.80;;;;;;;;;;5093626;28;20036;-75
2021/10/09 16:52:26;;;;;;;10.48;7.72;;;;;;;;;;5090096;28;20122;-79
2021/10/09 16:54:51;;;;;;;12.02;8.38;;;;;;;;;;5093714;28;20056;-76
2021/10/09 16:57:18;;;;;;;17.73;7.70;;;;;;;;;;5096123;28;20043;-76
2021/10/09 16:59:44;;;;;;;12.60;7.50;;;;;;;;;;5072872;28;20032;-79
2021/10/09 17:02:09;;;;;;;18.88;12.85;;;;;;;;;;5073704;28;20555;-76
2021/10/09 17:04:34;;;;;;;13.68;10.10;;;;;;;;;;5072751;28;20033;-74
2021/10/09 17:07:00;;;;;;;12.45;8.63;;;;;;;;;;5072309;28;20048;-76
2021/10/09 17:09:25;;;;;;;12.70;8.25;;;;;;;;;;5072563;28;20112;-75
2021/10/09 17:11:51;;;;;;;17.27;8.20;;;;;;;;;;5085174;28;20496;-77
2021/10/09 17:14:16;;;;;;;16.88;10.98;;;;;;;;;;5091913;28;20043;-75
2021/10/09 17:16:41;;;;;;;19.30;9.13;;;;;;;;;;5091929;28;20574;-74